createdAt,value
2022-10-25T00:00:11.604Z,1007.95
2022-10-25T00:01:11.657Z,1007.97
2022-10-25T00:02:11.802Z,1007.99
2022-10-25T00:03:11.607Z,1008.00
2022-10-25T00:04:11.695Z,1008.05
2022-10-25T00:05:11.603Z,1008.00
2022-10-25T00:06:11.599Z,1008.03
2022-10-25T00:07:11.598Z,1008.01
2022-10-25T00:08:11.598Z,1008.01
2022-10-25T00:09:11.599Z,1008.05
2022-10-25T00:10:11.593Z,1008.05
2022-10-25T00:11:11.600Z,1008.02
2022-10-25T00:12:11.599Z,1008.03
2022-10-25T00:13:11.611Z,1008.07
2022-10-25T00:14:11.593Z,1008.04
2022-10-25T00:15:11.598Z,1008.08
2022-10-25T00:16:11.599Z,1008.07
2022-10-25T00:17:11.600Z,1008.06
2022-10-25T00:18:11.620Z,1008.01
2022-10-25T00:19:11.594Z,1008.00
2022-10-25T00:20:11.598Z,1008.03
2022-10-25T00:21:11.598Z,1008.01
2022-10-25T00:22:11.599Z,1008.06
2022-10-25T00:23:11.597Z,1008.03
2022-10-25T00:24:11.595Z,1008.02
2022-10-25T00:25:11.596Z,1008.02
2022-10-25T00:26:11.594Z,1007.95
2022-10-25T00:27:11.594Z,1007.97
2022-10-25T00:28:11.598Z,1007.94
2022-10-25T00:29:11.711Z,1008.02
2022-10-25T00:30:11.592Z,1008.01
2022-10-25T00:31:11.595Z,1008.01
2022-10-25T00:32:11.592Z,1007.99
2022-10-25T00:33:11.595Z,1007.98
2022-10-25T00:34:11.613Z,1007.97
2022-10-25T00:35:11.593Z,1008.00
2022-10-25T00:36:11.589Z,1008.01
2022-10-25T00:37:11.593Z,1008.03
2022-10-25T00:38:11.595Z,1008.03
2022-10-25T00:39:11.596Z,1008.02
2022-10-25T00:40:11.591Z,1008.06
2022-10-25T00:41:11.596Z,1008.06
2022-10-25T00:42:11.591Z,1008.07
2022-10-25T00:43:11.593Z,1008.04
2022-10-25T00:44:11.593Z,1008.08
2022-10-25T00:45:11.590Z,1008.08
2022-10-25T00:46:11.596Z,1008.07
2022-10-25T00:47:11.584Z,1008.07
2022-10-25T00:48:11.589Z,1008.03
2022-10-25T00:49:11.596Z,1008.06
2022-10-25T00:50:11.606Z,1008.03
2022-10-25T00:51:11.587Z,1008.07
2022-10-25T00:52:11.590Z,1008.04
2022-10-25T00:53:11.585Z,1008.06
2022-10-25T00:54:11.616Z,1008.04
2022-10-25T00:55:11.595Z,1008.01
2022-10-25T00:56:11.590Z,1008.05
2022-10-25T00:57:11.591Z,1008.07
2022-10-25T00:58:11.592Z,1008.02
2022-10-25T00:59:11.586Z,1008.08
2022-10-25T01:00:11.586Z,1008.07
2022-10-25T01:01:11.608Z,1008.08
2022-10-25T01:02:11.741Z,1008.08
2022-10-25T01:03:11.588Z,1008.04
2022-10-25T01:04:11.584Z,1008.05
2022-10-25T01:05:11.587Z,1008.12
2022-10-25T01:06:11.602Z,1008.07
2022-10-25T01:07:11.588Z,1008.11
2022-10-25T01:08:11.585Z,1008.10
2022-10-25T01:09:11.582Z,1008.12
2022-10-25T01:10:11.589Z,1008.20
2022-10-25T01:11:11.625Z,1008.13
2022-10-25T01:12:11.590Z,1008.10
2022-10-25T01:13:11.588Z,1008.13
2022-10-25T01:14:11.587Z,1008.10
2022-10-25T01:15:11.583Z,1008.08
2022-10-25T01:16:11.586Z,1008.06
2022-10-25T01:17:11.586Z,1008.01
2022-10-25T01:18:11.585Z,1008.05
2022-10-25T01:19:11.584Z,1008.08
2022-10-25T01:20:11.579Z,1008.06
2022-10-25T01:21:11.578Z,1008.05
2022-10-25T01:22:11.606Z,1008.06
2022-10-25T01:23:11.583Z,1008.05
2022-10-25T01:24:11.580Z,1008.05
2022-10-25T01:25:11.582Z,1008.00
2022-10-25T01:26:11.580Z,1008.00
2022-10-25T01:27:11.580Z,1008.00
2022-10-25T01:28:11.583Z,1008.02
2022-10-25T01:29:11.578Z,1008.02
2022-10-25T01:30:11.581Z,1008.01
2022-10-25T01:31:11.583Z,1007.97
2022-10-25T01:32:11.599Z,1007.95
2022-10-25T01:33:11.579Z,1007.95
2022-10-25T01:34:11.581Z,1007.94
2022-10-25T01:35:11.577Z,1007.95
2022-10-25T01:36:11.580Z,1007.95
2022-10-25T01:37:11.579Z,1007.96
2022-10-25T01:38:11.606Z,1007.94
2022-10-25T01:39:11.578Z,1007.95
2022-10-25T01:40:11.578Z,1007.93
2022-10-25T01:41:11.575Z,1007.99
2022-10-25T01:42:11.573Z,1007.96
2022-10-25T01:43:11.578Z,1007.95
2022-10-25T01:44:11.579Z,1007.99
2022-10-25T01:45:11.581Z,1007.95
2022-10-25T01:46:11.579Z,1007.97
2022-10-25T01:47:11.576Z,1007.98
2022-10-25T01:48:11.584Z,1008.09
2022-10-25T01:49:11.577Z,1008.15
2022-10-25T01:50:11.574Z,1008.21
2022-10-25T01:51:11.572Z,1008.18
2022-10-25T01:52:11.575Z,1008.13
2022-10-25T01:53:11.574Z,1008.08
2022-10-25T01:54:11.612Z,1008.01
2022-10-25T01:55:11.578Z,1007.99
2022-10-25T01:56:11.572Z,1007.95
2022-10-25T01:57:11.576Z,1007.95
2022-10-25T01:58:11.576Z,1007.97
2022-10-25T01:59:11.573Z,1007.97
2022-10-25T02:00:11.576Z,1007.91
2022-10-25T02:01:11.733Z,1007.91
2022-10-25T02:02:11.574Z,1007.94
2022-10-25T02:03:11.571Z,1007.95
2022-10-25T02:04:11.574Z,1007.95
2022-10-25T02:05:11.570Z,1007.96
2022-10-25T02:06:11.569Z,1007.97
2022-10-25T02:07:11.572Z,1007.93
2022-10-25T02:08:11.571Z,1007.92
2022-10-25T02:09:11.569Z,1007.94
2022-10-25T02:10:11.593Z,1007.98
2022-10-25T02:11:11.564Z,1007.95
2022-10-25T02:12:11.568Z,1007.99
2022-10-25T02:13:11.568Z,1007.97
2022-10-25T02:14:11.565Z,1007.93
2022-10-25T02:15:11.571Z,1007.94
2022-10-25T02:16:11.566Z,1007.94
2022-10-25T02:17:11.567Z,1007.95
2022-10-25T02:18:11.569Z,1007.95
2022-10-25T02:19:11.577Z,1007.95
2022-10-25T02:20:11.570Z,1007.98
2022-10-25T02:21:11.571Z,1007.93
2022-10-25T02:22:11.567Z,1007.97
2022-10-25T02:23:11.563Z,1007.90
2022-10-25T02:24:11.564Z,1007.94
2022-10-25T02:25:11.567Z,1007.96
2022-10-25T02:26:11.668Z,1008.01
2022-10-25T02:27:11.566Z,1008.03
2022-10-25T02:28:11.565Z,1008.04
2022-10-25T02:29:11.564Z,1008.05
2022-10-25T02:30:11.564Z,1008.06
2022-10-25T02:31:11.563Z,1008.02
2022-10-25T02:32:11.561Z,1008.04
2022-10-25T02:33:11.564Z,1008.06
2022-10-25T02:34:11.560Z,1008.07
2022-10-25T02:35:14.670Z,1008.10
2022-10-25T02:36:11.561Z,1008.06
2022-10-25T02:37:11.562Z,1008.12
2022-10-25T02:38:11.560Z,1008.06
2022-10-25T02:39:11.562Z,1008.07
2022-10-25T02:40:11.559Z,1008.05
2022-10-25T02:41:11.559Z,1008.03
2022-10-25T02:42:11.584Z,1008.02
2022-10-25T02:43:11.560Z,1008.00
2022-10-25T02:44:11.564Z,1008.00
2022-10-25T02:45:11.562Z,1007.98
2022-10-25T02:46:11.581Z,1008.04
2022-10-25T02:47:11.560Z,1007.98
2022-10-25T02:48:11.561Z,1008.02
2022-10-25T02:49:11.559Z,1008.00
2022-10-25T02:50:11.563Z,1008.04
2022-10-25T02:51:11.555Z,1008.03
2022-10-25T02:52:11.560Z,1008.04
2022-10-25T02:53:11.557Z,1008.07
2022-10-25T02:54:11.556Z,1008.06
2022-10-25T02:55:11.558Z,1008.08
2022-10-25T02:56:11.554Z,1008.05
2022-10-25T02:57:11.557Z,1008.08
2022-10-25T02:58:11.578Z,1008.09
2022-10-25T02:59:11.555Z,1008.11
2022-10-25T03:01:11.745Z,1008.12
2022-10-25T03:02:11.556Z,1008.14
2022-10-25T03:03:11.558Z,1008.17
2022-10-25T03:04:11.562Z,1008.15
2022-10-25T03:05:11.556Z,1008.18
2022-10-25T03:06:11.552Z,1008.17
2022-10-25T03:07:11.553Z,1008.17
2022-10-25T03:08:11.558Z,1008.14
2022-10-25T03:09:11.555Z,1008.18
2022-10-25T03:10:11.552Z,1008.17
2022-10-25T03:11:11.551Z,1008.20
2022-10-25T03:12:11.557Z,1008.17
2022-10-25T03:13:11.550Z,1008.18
2022-10-25T03:14:11.590Z,1008.16
2022-10-25T03:15:11.550Z,1008.21
2022-10-25T03:16:11.558Z,1008.24
2022-10-25T03:17:11.555Z,1008.18
2022-10-25T03:18:11.550Z,1008.25
2022-10-25T03:19:11.552Z,1008.26
2022-10-25T03:20:11.550Z,1008.28
2022-10-25T03:21:11.550Z,1008.25
2022-10-25T03:22:11.552Z,1008.28
2022-10-25T03:23:11.548Z,1008.28
2022-10-25T03:24:11.551Z,1008.28
2022-10-25T03:25:11.550Z,1008.29
2022-10-25T03:26:11.546Z,1008.26
2022-10-25T03:27:11.550Z,1008.28
2022-10-25T03:28:11.542Z,1008.32
2022-10-25T03:29:11.554Z,1008.33
2022-10-25T03:30:11.574Z,1008.29
2022-10-25T03:31:11.545Z,1008.31
2022-10-25T03:32:11.549Z,1008.33
2022-10-25T03:33:11.545Z,1008.30
2022-10-25T03:34:11.545Z,1008.31
2022-10-25T03:35:11.556Z,1008.31
2022-10-25T03:36:11.549Z,1008.33
2022-10-25T03:37:11.550Z,1008.29
2022-10-25T03:38:11.546Z,1008.28
2022-10-25T03:39:11.541Z,1008.32
2022-10-25T03:40:11.548Z,1008.30
2022-10-25T03:41:11.544Z,1008.28
2022-10-25T03:42:11.549Z,1008.32
2022-10-25T03:43:11.644Z,1008.34
2022-10-25T03:44:11.543Z,1008.34
2022-10-25T03:45:11.544Z,1008.34
2022-10-25T03:46:11.567Z,1008.43
2022-10-25T03:47:11.538Z,1008.41
2022-10-25T03:48:11.542Z,1008.46
2022-10-25T03:49:11.542Z,1008.49
2022-10-25T03:50:11.543Z,1008.52
2022-10-25T03:51:11.541Z,1008.51
2022-10-25T03:52:11.544Z,1008.53
2022-10-25T03:53:11.544Z,1008.54
2022-10-25T03:54:11.543Z,1008.58
2022-10-25T03:55:11.539Z,1008.65
2022-10-25T03:56:11.538Z,1008.61
2022-10-25T03:57:11.538Z,1008.60
2022-10-25T03:58:11.543Z,1008.59
2022-10-25T03:59:11.542Z,1008.55
2022-10-25T04:00:11.542Z,1008.55
2022-10-25T04:01:11.673Z,1008.54
2022-10-25T04:02:11.790Z,1008.55
2022-10-25T04:03:11.560Z,1008.57
2022-10-25T04:04:11.539Z,1008.55
2022-10-25T04:05:11.534Z,1008.58
2022-10-25T04:06:11.538Z,1008.56
2022-10-25T04:07:11.539Z,1008.55
2022-10-25T04:08:11.536Z,1008.59
2022-10-25T04:09:11.541Z,1008.54
2022-10-25T04:10:11.538Z,1008.55
2022-10-25T04:11:11.538Z,1008.52
2022-10-25T04:12:11.538Z,1008.57
2022-10-25T04:13:11.539Z,1008.58
2022-10-25T04:14:11.536Z,1008.56
2022-10-25T04:15:11.535Z,1008.54
2022-10-25T04:16:13.014Z,1008.56
2022-10-25T04:17:11.531Z,1008.56
2022-10-25T04:18:11.561Z,1008.57
2022-10-25T04:19:11.534Z,1008.61
2022-10-25T04:20:11.531Z,1008.57
2022-10-25T04:21:11.538Z,1008.63
2022-10-25T04:22:11.542Z,1008.63
2022-10-25T04:23:11.532Z,1008.62
2022-10-25T04:24:11.532Z,1008.64
2022-10-25T04:25:11.547Z,1008.64
2022-10-25T04:26:11.532Z,1008.65
2022-10-25T04:27:11.533Z,1008.64
2022-10-25T04:28:11.528Z,1008.68
2022-10-25T04:29:11.528Z,1008.71
2022-10-25T04:30:11.532Z,1008.70
2022-10-25T04:31:11.530Z,1008.66
2022-10-25T04:32:11.568Z,1008.71
2022-10-25T04:33:11.525Z,1008.70
2022-10-25T04:34:11.573Z,1008.69
2022-10-25T04:35:11.528Z,1008.72
2022-10-25T04:36:11.526Z,1008.69
2022-10-25T04:37:11.527Z,1008.70
2022-10-25T04:38:11.527Z,1008.71
2022-10-25T04:39:11.523Z,1008.69
2022-10-25T04:40:11.525Z,1008.71
2022-10-25T04:41:11.522Z,1008.68
2022-10-25T04:42:11.532Z,1008.71
2022-10-25T04:43:11.524Z,1008.69
2022-10-25T04:44:11.527Z,1008.65
2022-10-25T04:45:11.523Z,1008.67
2022-10-25T04:46:11.520Z,1008.64
2022-10-25T04:47:11.527Z,1008.57
2022-10-25T04:48:11.525Z,1008.61
2022-10-25T04:49:11.520Z,1008.66
2022-10-25T04:50:11.540Z,1008.62
2022-10-25T04:51:11.521Z,1008.60
2022-10-25T04:52:11.528Z,1008.61
2022-10-25T04:53:11.522Z,1008.64
2022-10-25T04:54:11.522Z,1008.68
2022-10-25T04:55:11.518Z,1008.65
2022-10-25T04:56:11.519Z,1008.65
2022-10-25T04:57:11.520Z,1008.68
2022-10-25T04:58:11.518Z,1008.69
2022-10-25T04:59:11.514Z,1008.63
2022-10-25T05:00:11.521Z,1008.66
2022-10-25T05:01:11.568Z,1008.66
2022-10-25T05:02:11.515Z,1008.67
2022-10-25T05:03:13.275Z,1008.65
2022-10-25T05:04:11.517Z,1008.68
2022-10-25T05:05:11.515Z,1008.68
2022-10-25T05:06:11.536Z,1008.70
2022-10-25T05:07:11.521Z,1008.64
2022-10-25T05:08:11.517Z,1008.63
2022-10-25T05:09:11.514Z,1008.68
2022-10-25T05:10:11.510Z,1008.69
2022-10-25T05:11:11.518Z,1008.70
2022-10-25T05:12:11.512Z,1008.67
2022-10-25T05:13:11.514Z,1008.68
2022-10-25T05:14:11.514Z,1008.65
2022-10-25T05:15:11.509Z,1008.70
2022-10-25T05:16:11.511Z,1008.73
2022-10-25T05:17:11.514Z,1008.76
2022-10-25T05:18:11.508Z,1008.74
2022-10-25T05:19:11.507Z,1008.76
2022-10-25T05:20:11.509Z,1008.75
2022-10-25T05:21:11.508Z,1008.77
2022-10-25T05:22:11.529Z,1008.79
2022-10-25T05:23:11.508Z,1008.79
2022-10-25T05:24:11.508Z,1008.75
2022-10-25T05:25:11.511Z,1008.71
2022-10-25T05:26:11.507Z,1008.73
2022-10-25T05:27:11.503Z,1008.73
2022-10-25T05:28:11.511Z,1008.79
2022-10-25T05:29:11.503Z,1008.77
2022-10-25T05:30:11.509Z,1008.78
2022-10-25T05:31:11.504Z,1008.80
2022-10-25T05:32:11.501Z,1008.75
2022-10-25T05:33:11.505Z,1008.79
2022-10-25T05:34:11.501Z,1008.78
2022-10-25T05:35:11.504Z,1008.77
2022-10-25T05:36:11.508Z,1008.76
2022-10-25T05:37:11.501Z,1008.75
2022-10-25T05:38:11.531Z,1008.76
2022-10-25T05:39:11.503Z,1008.76
2022-10-25T05:40:11.505Z,1008.78
2022-10-25T05:41:11.507Z,1008.79
2022-10-25T05:42:11.506Z,1008.82
2022-10-25T05:43:11.497Z,1008.85
2022-10-25T05:44:11.504Z,1008.85
2022-10-25T05:45:11.502Z,1008.89
2022-10-25T05:46:11.496Z,1008.89
2022-10-25T05:47:11.497Z,1008.90
2022-10-25T05:48:11.498Z,1008.88
2022-10-25T05:49:11.500Z,1008.93
2022-10-25T05:50:11.499Z,1008.93
2022-10-25T05:51:28.796Z,1008.96
2022-10-25T05:52:11.493Z,1008.94
2022-10-25T05:53:11.494Z,1008.96
2022-10-25T05:54:11.529Z,1009.00
2022-10-25T05:55:11.493Z,1008.94
2022-10-25T05:56:11.496Z,1009.02
2022-10-25T05:57:11.500Z,1009.02
2022-10-25T05:58:11.497Z,1009.06
2022-10-25T05:59:11.493Z,1009.05
2022-10-25T06:00:11.497Z,1009.10
2022-10-25T06:01:11.590Z,1009.05
2022-10-25T06:02:11.587Z,1009.09
2022-10-25T06:03:11.490Z,1009.09
2022-10-25T06:04:11.491Z,1009.08
2022-10-25T06:05:11.489Z,1009.07
2022-10-25T06:06:11.496Z,1009.11
2022-10-25T06:07:11.488Z,1009.11
2022-10-25T06:08:11.488Z,1009.16
2022-10-25T06:09:11.490Z,1009.17
2022-10-25T06:10:11.509Z,1009.17
2022-10-25T06:11:11.488Z,1009.19
2022-10-25T06:12:11.489Z,1009.26
2022-10-25T06:13:11.491Z,1009.21
2022-10-25T06:14:11.489Z,1009.23
2022-10-25T06:15:11.488Z,1009.27
2022-10-25T06:16:11.486Z,1009.27
2022-10-25T06:17:11.484Z,1009.29
2022-10-25T06:18:11.483Z,1009.24
2022-10-25T06:19:11.484Z,1009.25
2022-10-25T06:20:11.484Z,1009.27
2022-10-25T06:21:11.481Z,1009.33
2022-10-25T06:22:11.485Z,1009.31
2022-10-25T06:23:11.484Z,1009.37
2022-10-25T06:24:11.485Z,1009.39
2022-10-25T06:25:11.482Z,1009.34
2022-10-25T06:26:11.496Z,1009.40
2022-10-25T06:27:11.480Z,1009.39
2022-10-25T06:28:11.478Z,1009.40
2022-10-25T06:29:11.481Z,1009.43
2022-10-25T06:30:11.478Z,1009.40
2022-10-25T06:31:11.478Z,1009.44
2022-10-25T06:32:11.478Z,1009.48
2022-10-25T06:33:11.477Z,1009.45
2022-10-25T06:34:11.479Z,1009.45
2022-10-25T06:35:11.478Z,1009.52
2022-10-25T06:36:11.477Z,1009.55
2022-10-25T06:37:11.470Z,1009.53
2022-10-25T06:38:11.474Z,1009.54
2022-10-25T06:39:11.472Z,1009.52
2022-10-25T06:40:11.531Z,1009.50
2022-10-25T06:41:11.470Z,1009.52
2022-10-25T06:42:11.498Z,1009.54
2022-10-25T06:43:11.471Z,1009.51
2022-10-25T06:44:11.472Z,1009.57
2022-10-25T06:45:11.472Z,1009.54
2022-10-25T06:46:11.468Z,1009.61
2022-10-25T06:47:17.337Z,1009.60
2022-10-25T06:48:11.469Z,1009.64
2022-10-25T06:49:11.470Z,1009.63
2022-10-25T06:50:11.463Z,1009.64
2022-10-25T06:51:11.473Z,1009.68
2022-10-25T06:52:11.469Z,1009.70
2022-10-25T06:53:11.467Z,1009.68
2022-10-25T06:54:11.468Z,1009.72
2022-10-25T06:55:11.467Z,1009.67
2022-10-25T06:56:14.462Z,1009.74
2022-10-25T06:57:11.467Z,1009.74
2022-10-25T06:58:11.484Z,1009.74
2022-10-25T06:59:11.464Z,1009.79
2022-10-25T07:00:11.467Z,1009.78
2022-10-25T07:01:11.647Z,1009.81
2022-10-25T07:02:11.617Z,1009.83
2022-10-25T07:03:11.467Z,1009.82
2022-10-25T07:04:11.466Z,1009.81
2022-10-25T07:05:11.480Z,1009.85
2022-10-25T07:06:11.466Z,1009.83
2022-10-25T07:07:11.460Z,1009.89
2022-10-25T07:08:11.459Z,1009.93
2022-10-25T07:09:11.460Z,1009.98
2022-10-25T07:10:11.464Z,1009.90
2022-10-25T07:11:11.462Z,1009.96
2022-10-25T07:12:12.728Z,1009.91
2022-10-25T07:13:11.461Z,1009.94
2022-10-25T07:14:11.480Z,1009.97
2022-10-25T07:15:11.485Z,1009.99
2022-10-25T07:16:11.467Z,1009.95
2022-10-25T07:17:11.459Z,1009.96
2022-10-25T07:18:11.458Z,1009.94
2022-10-25T07:19:11.453Z,1009.95
2022-10-25T07:20:11.455Z,1009.96
2022-10-25T07:21:11.460Z,1009.95
2022-10-25T07:22:11.452Z,1009.93
2022-10-25T07:23:11.462Z,1009.95
2022-10-25T07:24:11.459Z,1009.95
2022-10-25T07:25:11.457Z,1009.94
2022-10-25T07:26:11.454Z,1010.02
2022-10-25T07:27:11.450Z,1010.15
2022-10-25T07:28:11.456Z,1010.03
2022-10-25T07:29:11.450Z,1010.02
2022-10-25T07:30:11.475Z,1010.03
2022-10-25T07:31:11.459Z,1010.08
2022-10-25T07:32:11.452Z,1010.11
2022-10-25T07:33:11.453Z,1010.14
2022-10-25T07:34:11.447Z,1010.14
2022-10-25T07:35:11.448Z,1010.11
2022-10-25T07:36:12.042Z,1010.12
2022-10-25T07:37:11.447Z,1010.15
2022-10-25T07:38:11.450Z,1010.15
2022-10-25T07:39:11.448Z,1010.22
2022-10-25T07:40:11.452Z,1010.19
2022-10-25T07:41:11.451Z,1010.19
2022-10-25T07:42:11.447Z,1010.22
2022-10-25T07:43:11.450Z,1010.20
2022-10-25T07:44:16.048Z,1010.14
2022-10-25T07:45:11.455Z,1010.16
2022-10-25T07:46:11.466Z,1010.19
2022-10-25T07:47:11.445Z,1010.20
2022-10-25T07:48:11.450Z,1010.24
2022-10-25T07:49:11.444Z,1010.31
2022-10-25T07:50:11.446Z,1010.34
2022-10-25T07:51:11.453Z,1010.43
2022-10-25T07:52:11.441Z,1010.38
2022-10-25T07:53:11.457Z,1010.25
2022-10-25T07:54:11.449Z,1010.24
2022-10-25T07:55:11.443Z,1010.21
2022-10-25T07:56:11.449Z,1010.21
2022-10-25T07:57:11.446Z,1010.24
2022-10-25T07:58:11.446Z,1010.25
2022-10-25T07:59:11.445Z,1010.28
2022-10-25T08:00:11.441Z,1010.34
2022-10-25T08:01:11.538Z,1010.35
2022-10-25T08:02:11.458Z,1010.40
2022-10-25T08:03:11.477Z,1010.33
2022-10-25T08:04:11.440Z,1010.30
2022-10-25T08:05:11.441Z,1010.35
2022-10-25T08:06:11.443Z,1010.36
2022-10-25T08:07:11.446Z,1010.37
2022-10-25T08:08:11.442Z,1010.39
2022-10-25T08:09:14.874Z,1010.34
2022-10-25T08:10:11.437Z,1010.46
2022-10-25T08:11:11.441Z,1010.47
2022-10-25T08:12:11.440Z,1010.46
2022-10-25T08:13:11.438Z,1010.47
2022-10-25T08:14:11.469Z,1010.43
2022-10-25T08:15:11.439Z,1010.39
2022-10-25T08:16:11.438Z,1010.43
2022-10-25T08:17:11.463Z,1010.36
2022-10-25T08:18:11.464Z,1010.40
2022-10-25T08:19:11.438Z,1010.34
2022-10-25T08:20:11.443Z,1010.35
2022-10-25T08:21:11.445Z,1010.35
2022-10-25T08:22:11.441Z,1010.34
2022-10-25T08:23:11.440Z,1010.38
2022-10-25T08:24:11.504Z,1010.45
2022-10-25T08:25:11.449Z,1010.43
2022-10-25T08:26:11.441Z,1010.45
2022-10-25T08:27:11.444Z,1010.42
2022-10-25T08:28:11.435Z,1010.43
2022-10-25T08:29:11.449Z,1010.44
2022-10-25T08:30:11.444Z,1010.41
2022-10-25T08:31:11.445Z,1010.44
2022-10-25T08:32:11.444Z,1010.42
2022-10-25T08:33:11.992Z,1010.47
2022-10-25T08:35:11.435Z,1010.48
2022-10-25T08:36:11.440Z,1010.46
2022-10-25T08:37:11.446Z,1010.39
2022-10-25T08:38:11.449Z,1010.44
2022-10-25T08:39:11.458Z,1010.43
2022-10-25T08:40:11.439Z,1010.42
2022-10-25T08:41:11.447Z,1010.48
2022-10-25T08:42:11.443Z,1010.48
2022-10-25T08:43:11.439Z,1010.44
2022-10-25T08:44:11.458Z,1010.48
2022-10-25T08:45:11.442Z,1010.48
2022-10-25T08:46:11.442Z,1010.48
2022-10-25T08:47:11.436Z,1010.46
2022-10-25T08:48:11.451Z,1010.44
2022-10-25T08:49:11.441Z,1010.43
2022-10-25T08:50:11.467Z,1010.46
2022-10-25T08:51:11.434Z,1010.46
2022-10-25T08:52:15.256Z,1010.51
2022-10-25T08:53:11.438Z,1010.53
2022-10-25T08:54:11.435Z,1010.56
2022-10-25T08:55:11.436Z,1010.66
2022-10-25T08:56:16.733Z,1010.67
2022-10-25T08:57:15.389Z,1010.64
2022-10-25T08:58:11.434Z,1010.61
2022-10-25T08:59:11.433Z,1010.56
2022-10-25T09:00:11.434Z,1010.56
2022-10-25T09:01:11.549Z,1010.57
2022-10-25T09:02:11.608Z,1010.61
2022-10-25T09:03:15.203Z,1010.62
2022-10-25T09:04:11.432Z,1010.64
2022-10-25T09:05:11.441Z,1010.58
2022-10-25T09:06:11.451Z,1010.59
2022-10-25T09:07:11.447Z,1010.64
2022-10-25T09:08:11.443Z,1010.69
2022-10-25T09:09:11.441Z,1010.64
2022-10-25T09:10:11.434Z,1010.81
2022-10-25T09:11:11.434Z,1010.76
2022-10-25T09:12:11.435Z,1010.74
2022-10-25T09:13:11.435Z,1010.77
2022-10-25T09:14:11.428Z,1010.83
2022-10-25T09:15:11.439Z,1010.81
2022-10-25T09:16:11.438Z,1010.82
2022-10-25T09:17:11.432Z,1010.87
2022-10-25T09:18:11.438Z,1010.86
2022-10-25T09:19:11.432Z,1010.91
2022-10-25T09:20:11.433Z,1010.98
2022-10-25T09:21:14.839Z,1011.02
2022-10-25T09:22:11.463Z,1010.86
2022-10-25T09:23:11.524Z,1010.87
2022-10-25T09:24:11.435Z,1011.03
2022-10-25T09:25:11.435Z,1011.07
2022-10-25T09:26:11.433Z,1011.07
2022-10-25T09:27:11.430Z,1010.89
2022-10-25T09:28:11.433Z,1010.83
2022-10-25T09:29:11.435Z,1010.77
2022-10-25T09:30:11.438Z,1010.76
2022-10-25T09:31:11.434Z,1010.72
2022-10-25T09:32:11.438Z,1010.78
2022-10-25T09:33:11.510Z,1010.83
2022-10-25T09:34:11.428Z,1010.82
2022-10-25T09:35:11.433Z,1010.79
2022-10-25T09:36:11.435Z,1010.75
2022-10-25T09:37:11.433Z,1010.78
2022-10-25T09:38:11.463Z,1010.84
2022-10-25T09:39:15.677Z,1010.82
2022-10-25T09:40:11.441Z,1010.76
2022-10-25T09:41:11.438Z,1010.80
2022-10-25T09:42:11.439Z,1010.87
2022-10-25T09:43:11.440Z,1010.84
2022-10-25T09:44:11.433Z,1010.87
2022-10-25T09:45:11.433Z,1010.89
2022-10-25T09:46:11.434Z,1010.81
2022-10-25T09:47:11.442Z,1010.89
2022-10-25T09:48:11.442Z,1010.89
2022-10-25T09:49:11.437Z,1010.88
2022-10-25T09:50:11.438Z,1010.90
2022-10-25T09:51:11.432Z,1010.92
2022-10-25T09:52:11.436Z,1010.93
2022-10-25T09:53:11.439Z,1010.97
2022-10-25T09:54:11.466Z,1011.04
2022-10-25T09:55:11.435Z,1010.98
2022-10-25T09:56:11.436Z,1011.04
2022-10-25T09:57:11.439Z,1011.09
2022-10-25T09:58:11.435Z,1011.19
2022-10-25T09:59:11.433Z,1011.27
2022-10-25T10:00:11.438Z,1011.28
2022-10-25T10:01:11.587Z,1011.39
2022-10-25T10:02:11.567Z,1011.46
2022-10-25T10:03:11.447Z,1011.43
2022-10-25T10:04:11.438Z,1011.29
2022-10-25T10:05:11.436Z,1011.19
2022-10-25T10:06:11.437Z,1011.14
2022-10-25T10:07:11.435Z,1011.13
2022-10-25T10:08:11.444Z,1011.12
2022-10-25T10:09:11.436Z,1011.16
2022-10-25T10:10:11.465Z,1011.19
2022-10-25T10:11:11.438Z,1011.19
2022-10-25T10:12:11.443Z,1011.25
2022-10-25T10:13:11.442Z,1011.13
2022-10-25T10:14:11.439Z,1011.16
2022-10-25T10:15:11.441Z,1011.13
2022-10-25T10:16:11.447Z,1011.15
2022-10-25T10:17:11.445Z,1011.12
2022-10-25T10:18:11.449Z,1011.03
2022-10-25T10:19:11.443Z,1011.07
2022-10-25T10:20:11.446Z,1011.07
2022-10-25T10:21:11.446Z,1011.08
2022-10-25T10:22:11.446Z,1011.06
2022-10-25T10:23:11.452Z,1011.13
2022-10-25T10:24:11.447Z,1011.17
2022-10-25T10:25:11.457Z,1011.05
2022-10-25T10:26:11.474Z,1011.05
2022-10-25T10:27:11.460Z,1011.03
2022-10-25T10:28:11.450Z,1011.02
2022-10-25T10:29:15.358Z,1011.01
2022-10-25T10:30:11.453Z,1011.03
2022-10-25T10:31:11.451Z,1011.04
2022-10-25T10:32:11.467Z,1011.11
2022-10-25T10:33:11.450Z,1011.14
2022-10-25T10:34:11.453Z,1011.14
2022-10-25T10:35:11.453Z,1011.07
2022-10-25T10:36:11.459Z,1011.14
2022-10-25T10:37:11.455Z,1011.09
2022-10-25T10:38:11.457Z,1011.11
2022-10-25T10:39:11.460Z,1011.12
2022-10-25T10:40:11.463Z,1011.06
2022-10-25T10:41:11.458Z,1011.09
2022-10-25T10:42:14.920Z,1011.09
2022-10-25T10:43:11.456Z,1011.13
2022-10-25T10:44:11.463Z,1011.05
2022-10-25T10:45:11.456Z,1011.11
2022-10-25T10:46:11.467Z,1011.02
2022-10-25T10:47:11.457Z,1011.09
2022-10-25T10:48:11.462Z,1011.08
2022-10-25T10:49:11.461Z,1011.07
2022-10-25T10:50:11.466Z,1011.14
2022-10-25T10:51:25.238Z,1011.14
2022-10-25T10:52:11.493Z,1011.16
2022-10-25T10:53:11.459Z,1011.10
2022-10-25T10:54:11.462Z,1011.21
2022-10-25T10:55:11.459Z,1011.11
2022-10-25T10:56:11.462Z,1011.13
2022-10-25T10:57:11.466Z,1011.10
2022-10-25T10:58:11.484Z,1011.13
2022-10-25T10:59:11.462Z,1011.14
2022-10-25T11:00:11.500Z,1011.48
2022-10-25T11:01:11.558Z,1011.20
2022-10-25T11:02:11.651Z,1011.20
2022-10-25T11:03:11.467Z,1011.20
2022-10-25T11:04:11.471Z,1011.21
2022-10-25T11:05:11.471Z,1011.10
2022-10-25T11:06:11.462Z,1011.12
2022-10-25T11:07:11.468Z,1011.13
2022-10-25T11:08:11.464Z,1011.18
2022-10-25T11:09:11.471Z,1011.14
2022-10-25T11:10:11.469Z,1011.19
2022-10-25T11:11:11.473Z,1011.20
2022-10-25T11:12:11.472Z,1011.20
2022-10-25T11:13:11.469Z,1011.23
2022-10-25T11:14:11.589Z,1011.16
2022-10-25T11:15:11.468Z,1011.19
2022-10-25T11:16:11.467Z,1011.21
2022-10-25T11:17:11.467Z,1011.21
2022-10-25T11:18:11.470Z,1011.24
2022-10-25T11:19:11.478Z,1011.25
2022-10-25T11:20:11.470Z,1011.28
2022-10-25T11:21:11.480Z,1011.30
2022-10-25T11:22:11.484Z,1011.56
2022-10-25T11:23:11.471Z,1011.39
2022-10-25T11:24:11.476Z,1011.38
2022-10-25T11:25:11.469Z,1011.41
2022-10-25T11:26:11.471Z,1011.50
2022-10-25T11:27:11.478Z,1011.99
2022-10-25T11:28:11.474Z,1011.54
2022-10-25T11:29:11.474Z,1011.83
2022-10-25T11:30:11.596Z,1011.50
2022-10-25T11:31:11.478Z,1011.40
2022-10-25T11:32:11.473Z,1011.58
2022-10-25T11:33:11.485Z,1011.36
2022-10-25T11:34:11.486Z,1011.98
2022-10-25T11:35:11.475Z,1012.46
2022-10-25T11:36:11.479Z,1011.40
2022-10-25T11:37:11.480Z,1011.32
2022-10-25T11:38:11.478Z,1011.61
2022-10-25T11:39:11.484Z,1011.85
2022-10-25T11:40:11.485Z,1011.51
2022-10-25T11:41:11.492Z,1011.41
2022-10-25T11:42:11.527Z,1011.61
2022-10-25T11:43:11.486Z,1011.41
2022-10-25T11:44:11.493Z,1011.29
2022-10-25T11:45:11.486Z,1011.32
2022-10-25T11:46:11.607Z,1011.36
2022-10-25T11:47:11.489Z,1011.40
2022-10-25T11:48:11.492Z,1011.30
2022-10-25T11:49:11.495Z,1011.23
2022-10-25T11:50:11.504Z,1011.26
2022-10-25T11:51:11.501Z,1011.33
2022-10-25T11:52:11.586Z,1011.31
2022-10-25T11:53:11.504Z,1011.26
2022-10-25T11:54:11.507Z,1011.28
2022-10-25T11:55:11.513Z,1011.24
2022-10-25T11:56:11.509Z,1011.40
2022-10-25T11:57:11.504Z,1011.29
2022-10-25T11:58:11.513Z,1011.32
2022-10-25T11:59:11.520Z,1011.31
2022-10-25T12:00:11.515Z,1011.29
2022-10-25T12:01:11.647Z,1011.28
2022-10-25T12:02:11.631Z,1011.30
2022-10-25T12:03:11.606Z,1011.32
2022-10-25T12:04:11.522Z,1011.30
2022-10-25T12:05:11.519Z,1011.27
2022-10-25T12:06:11.521Z,1011.30
2022-10-25T12:07:11.523Z,1011.41